sensor_id;sensor_type;location;lat;lon;timestamp;pressure;altitude;pressure_sealevel;temperature;humidity
10462;BME280;5278;42.656;23.374;2023-01-29T00:01:54;94688.50;;;11.47;84.76
10462;BME280;5278;42.656;23.374;2023-01-29T00:04:23;94698.19;;;12.62;73.48
10462;BME280;5278;42.656;23.374;2023-01-29T00:06:50;94689.47;;;13.40;64.07
10462;BME280;5278;42.656;23.374;2023-01-29T00:09:17;94699.84;;;13.89;58.90
10462;BME280;5278;42.656;23.374;2023-01-29T00:11:44;94695.38;;;14.24;54.28
10462;BME280;5278;42.656;23.374;2023-01-29T00:14:11;94691.34;;;14.76;48.52
10462;BME280;5278;42.656;23.374;2023-01-29T00:16:38;94701.03;;;14.88;45.04
10462;BME280;5278;42.656;23.374;2023-01-29T00:19:06;94698.22;;;12.83;42.73
10462;BME280;5278;42.656;23.374;2023-01-29T00:21:34;94720.47;;;11.18;47.66
10462;BME280;5278;42.656;23.374;2023-01-29T00:24:01;94731.19;;;9.52;52.45
10462;BME280;5278;42.656;23.374;2023-01-29T00:26:28;94733.44;;;8.34;57.11
10462;BME280;5278;42.656;23.374;2023-01-29T00:28:55;94554.09;;;5.88;62.73
10462;BME280;5278;42.656;23.374;2023-01-29T00:31:25;94748.09;;;6.18;68.74
10462;BME280;5278;42.656;23.374;2023-01-29T00:33:52;94754.59;;;5.57;72.14
10462;BME280;5278;42.656;23.374;2023-01-29T00:36:20;94757.84;;;4.84;76.45
10462;BME280;5278;42.656;23.374;2023-01-29T00:38:55;94752.00;;;4.24;80.25
10462;BME280;5278;42.656;23.374;2023-01-29T00:41:25;94763.63;;;3.79;83.03
10462;BME280;5278;42.656;23.374;2023-01-29T00:44:10;94760.06;;;3.61;85.58
10462;BME280;5278;42.656;23.374;2023-01-29T00:46:55;94765.31;;;3.29;87.35
10462;BME280;5278;42.656;23.374;2023-01-29T00:49:22;94771.03;;;3.12;89.33
10462;BME280;5278;42.656;23.374;2023-01-29T00:51:49;94763.88;;;2.94;91.33
10462;BME280;5278;42.656;23.374;2023-01-29T00:54:31;94767.03;;;2.77;92.13
10462;BME280;5278;42.656;23.374;2023-01-29T00:56:58;94760.25;;;2.76;92.34
10462;BME280;5278;42.656;23.374;2023-01-29T00:59:25;94710.88;;;2.42;93.65
10462;BME280;5278;42.656;23.374;2023-01-29T01:01:51;94758.56;;;2.66;94.48
10462;BME280;5278;42.656;23.374;2023-01-29T01:04:47;94754.44;;;2.53;95.06
10462;BME280;5278;42.656;23.374;2023-01-29T01:07:15;94760.72;;;2.49;95.61
10462;BME280;5278;42.656;23.374;2023-01-29T01:09:45;94757.66;;;2.55;95.54
10462;BME280;5278;42.656;23.374;2023-01-29T01:12:29;94767.50;;;2.39;96.19
10462;BME280;5278;42.656;23.374;2023-01-29T01:14:57;94748.00;;;2.27;96.52
10462;BME280;5278;42.656;23.374;2023-01-29T01:17:24;94762.91;;;2.22;97.34
10462;BME280;5278;42.656;23.374;2023-01-29T01:19:51;94755.69;;;2.16;98.81
10462;BME280;5278;42.656;23.374;2023-01-29T01:22:18;94756.78;;;2.13;98.42
10462;BME280;5278;42.656;23.374;2023-01-29T01:24:47;94751.88;;;2.10;99.49
10462;BME280;5278;42.656;23.374;2023-01-29T01:27:14;94752.59;;;2.01;99.49
10462;BME280;5278;42.656;23.374;2023-01-29T01:29:43;94749.91;;;2.03;99.94
10462;BME280;5278;42.656;23.374;2023-01-29T01:32:10;94741.78;;;1.98;99.56
10462;BME280;5278;42.656;23.374;2023-01-29T01:34:37;94746.56;;;1.91;99.87
10462;BME280;5278;42.656;23.374;2023-01-29T01:37:05;94752.97;;;1.86;100.00
10462;BME280;5278;42.656;23.374;2023-01-29T01:39:31;94746.34;;;1.72;100.00
10462;BME280;5278;42.656;23.374;2023-01-29T01:42:00;94751.47;;;1.72;100.00
10462;BME280;5278;42.656;23.374;2023-01-29T01:44:53;94760.91;;;1.83;100.00
10462;BME280;5278;42.656;23.374;2023-01-29T01:47:25;94747.03;;;1.85;100.00
10462;BME280;5278;42.656;23.374;2023-01-29T01:49:54;94758.22;;;1.84;100.00
10462;BME280;5278;42.656;23.374;2023-01-29T01:52:23;94759.06;;;1.73;100.00
10462;BME280;5278;42.656;23.374;2023-01-29T01:54:50;94767.09;;;1.69;100.00
10462;BME280;5278;42.656;23.374;2023-01-29T01:57:21;94758.94;;;1.64;100.00
10462;BME280;5278;42.656;23.374;2023-01-29T01:59:55;94765.56;;;1.66;100.00
10462;BME280;5278;42.656;23.374;2023-01-29T02:02:24;94756.03;;;1.68;100.00
10462;BME280;5278;42.656;23.374;2023-01-29T02:05:11;94773.69;;;1.71;100.00
10462;BME280;5278;42.656;23.374;2023-01-29T02:07:56;94769.28;;;1.62;100.00
10462;BME280;5278;42.656;23.374;2023-01-29T02:13:14;94771.84;;;1.73;100.00
10462;BME280;5278;42.656;23.374;2023-01-29T02:15:43;94770.44;;;1.81;100.00
10462;BME280;5278;42.656;23.374;2023-01-29T02:18:13;94770.31;;;1.82;100.00
10462;BME280;5278;42.656;23.374;2023-01-29T02:20:43;94770.06;;;1.85;100.00
10462;BME280;5278;42.656;23.374;2023-01-29T02:23:49;94777.19;;;1.93;100.00
10462;BME280;5278;42.656;23.374;2023-01-29T02:29:18;94770.44;;;1.92;100.00
10462;BME280;5278;42.656;23.374;2023-01-29T02:32:09;94781.28;;;1.84;100.00
10462;BME280;5278;42.656;23.374;2023-01-29T02:34:47;94783.47;;;1.89;100.00
10462;BME280;5278;42.656;23.374;2023-01-29T02:37:38;94777.91;;;1.84;100.00
10462;BME280;5278;42.656;23.374;2023-01-29T02:40:13;94787.31;;;1.94;100.00
10462;BME280;5278;42.656;23.374;2023-01-29T02:42:50;94798.13;;;1.98;100.00
10462;BME280;5278;42.656;23.374;2023-01-29T02:45:23;94786.97;;;1.99;100.00
10462;BME280;5278;42.656;23.374;2023-01-29T02:47:58;94798.34;;;1.95;100.00
10462;BME280;5278;42.656;23.374;2023-01-29T02:50:31;94797.88;;;2.01;100.00
10462;BME280;5278;42.656;23.374;2023-01-29T02:53:04;94799.88;;;2.08;100.00
10462;BME280;5278;42.656;23.374;2023-01-29T02:55:37;94793.22;;;2.06;100.00
10462;BME280;5278;42.656;23.374;2023-01-29T02:58:10;94791.38;;;2.08;100.00
10462;BME280;5278;42.656;23.374;2023-01-29T03:00:41;94793.22;;;2.06;100.00
10462;BME280;5278;42.656;23.374;2023-01-29T03:03:13;94800.53;;;2.10;100.00
10462;BME280;5278;42.656;23.374;2023-01-29T03:05:48;94790.19;;;2.12;100.00
10462;BME280;5278;42.656;23.374;2023-01-29T03:08:21;94793.31;;;2.15;100.00
10462;BME280;5278;42.656;23.374;2023-01-29T03:11:03;94793.19;;;2.17;100.00
10462;BME280;5278;42.656;23.374;2023-01-29T03:13:35;94797.72;;;2.25;100.00
10462;BME280;5278;42.656;23.374;2023-01-29T03:16:09;94788.44;;;2.24;100.00
10462;BME280;5278;42.656;23.374;2023-01-29T03:18:41;94794.31;;;2.35;100.00
10462;BME280;5278;42.656;23.374;2023-01-29T03:21:17;94784.78;;;2.26;100.00
10462;BME280;5278;42.656;23.374;2023-01-29T03:24:04;94801.78;;;2.38;100.00
10462;BME280;5278;42.656;23.374;2023-01-29T03:26:50;94803.38;;;2.39;100.00
10462;BME280;5278;42.656;23.374;2023-01-29T03:29:37;94805.28;;;2.37;99.98
10462;BME280;5278;42.656;23.374;2023-01-29T03:32:27;94804.56;;;2.35;100.00
10462;BME280;5278;42.656;23.374;2023-01-29T03:34:57;94805.03;;;2.29;98.96
10462;BME280;5278;42.656;23.374;2023-01-29T03:37:31;94798.44;;;2.27;99.83
10462;BME280;5278;42.656;23.374;2023-01-29T03:39:59;94804.94;;;2.31;99.74
10462;BME280;5278;42.656;23.374;2023-01-29T03:42:34;94808.31;;;2.20;98.26
10462;BME280;5278;42.656;23.374;2023-01-29T03:45:11;94803.44;;;2.17;99.17
10462;BME280;5278;42.656;23.374;2023-01-29T03:47:45;94800.63;;;2.20;99.72
10462;BME280;5278;42.656;23.374;2023-01-29T03:50:23;94795.06;;;2.15;99.36
10462;BME280;5278;42.656;23.374;2023-01-29T03:52:59;94798.13;;;2.09;100.00
10462;BME280;5278;42.656;23.374;2023-01-29T03:55:34;94796.22;;;2.22;100.00
10462;BME280;5278;42.656;23.374;2023-01-29T03:58:11;94804.84;;;2.21;99.69
10462;BME280;5278;42.656;23.374;2023-01-29T04:00:44;94796.69;;;2.16;100.00
10462;BME280;5278;42.656;23.374;2023-01-29T04:03:23;94802.06;;;2.24;99.64
10462;BME280;5278;42.656;23.374;2023-01-29T04:05:58;94810.31;;;2.28;100.00
10462;BME280;5278;42.656;23.374;2023-01-29T04:08:39;94800.16;;;2.26;100.00
10462;BME280;5278;42.656;23.374;2023-01-29T04:11:13;94804.38;;;2.27;100.00
10462;BME280;5278;42.656;23.374;2023-01-29T04:13:42;94788.53;;;2.22;100.00
10462;BME280;5278;42.656;23.374;2023-01-29T04:16:12;94809.50;;;2.27;100.00
10462;BME280;5278;42.656;23.374;2023-01-29T04:18:45;94814.28;;;2.21;100.00
10462;BME280;5278;42.656;23.374;2023-01-29T04:21:12;94814.16;;;2.22;100.00
10462;BME280;5278;42.656;23.374;2023-01-29T04:23:39;94817.09;;;2.17;100.00
10462;BME280;5278;42.656;23.374;2023-01-29T04:26:23;94812.50;;;2.32;100.00
10462;BME280;5278;42.656;23.374;2023-01-29T04:29:03;94813.31;;;2.33;99.93
10462;BME280;5278;42.656;23.374;2023-01-29T04:31:42;94811.81;;;2.30;100.00
10462;BME280;5278;42.656;23.374;2023-01-29T04:34:22;94807.84;;;2.26;99.91
10462;BME280;5278;42.656;23.374;2023-01-29T04:37:01;94815.28;;;2.29;99.64
10462;BME280;5278;42.656;23.374;2023-01-29T04:39:42;94830.09;;;2.26;100.00
10462;BME280;5278;42.656;23.374;2023-01-29T04:42:16;94815.78;;;2.23;99.12
10462;BME280;5278;42.656;23.374;2023-01-29T04:44:52;94830.25;;;2.24;99.78
10462;BME280;5278;42.656;23.374;2023-01-29T04:47:25;94824.97;;;2.26;99.78
10462;BME280;5278;42.656;23.374;2023-01-29T04:50:01;94818.09;;;2.26;99.52
10462;BME280;5278;42.656;23.374;2023-01-29T04:52:37;94831.72;;;2.27;99.11
10462;BME280;5278;42.656;23.374;2023-01-29T04:55:09;94825.53;;;2.29;99.15
10462;BME280;5278;42.656;23.374;2023-01-29T04:57:46;94824.50;;;2.21;99.67
10462;BME280;5278;42.656;23.374;2023-01-29T05:00:19;94831.19;;;2.12;99.49
10462;BME280;5278;42.656;23.374;2023-01-29T05:02:48;94838.16;;;2.10;100.00
10462;BME280;5278;42.656;23.374;2023-01-29T05:05:18;94816.53;;;2.03;99.31
10462;BME280;5278;42.656;23.374;2023-01-29T05:07:47;94824.41;;;2.11;99.61
10462;BME280;5278;42.656;23.374;2023-01-29T05:10:17;94822.56;;;2.13;99.87
10462;BME280;5278;42.656;23.374;2023-01-29T05:12:47;94829.88;;;2.17;99.88
10462;BME280;5278;42.656;23.374;2023-01-29T05:15:22;94833.72;;;2.23;99.79
10462;BME280;5278;42.656;23.374;2023-01-29T05:17:51;94830.09;;;2.14;98.79
10462;BME280;5278;42.656;23.374;2023-01-29T05:20:19;94833.75;;;2.12;98.63
10462;BME280;5278;42.656;23.374;2023-01-29T05:22:47;94834.19;;;2.17;99.77
10462;BME280;5278;42.656;23.374;2023-01-29T05:25:21;94832.09;;;2.11;99.46
10462;BME280;5278;42.656;23.374;2023-01-29T05:27:48;94834.44;;;2.14;99.06
10462;BME280;5278;42.656;23.374;2023-01-29T05:30:32;94842.59;;;2.19;98.65
10462;BME280;5278;42.656;23.374;2023-01-29T05:33:01;94843.75;;;2.15;98.90
10462;BME280;5278;42.656;23.374;2023-01-29T05:35:30;94846.56;;;2.12;100.00
10462;BME280;5278;42.656;23.374;2023-01-29T05:37:57;94819.66;;;1.95;98.38
10462;BME280;5278;42.656;23.374;2023-01-29T05:40:24;94852.72;;;2.09;99.24
10462;BME280;5278;42.656;23.374;2023-01-29T05:42:51;94845.25;;;2.17;100.00
10462;BME280;5278;42.656;23.374;2023-01-29T05:45:18;94849.78;;;2.25;100.00
10462;BME280;5278;42.656;23.374;2023-01-29T05:47:45;94855.38;;;2.30;99.93
10462;BME280;5278;42.656;23.374;2023-01-29T05:50:13;94851.63;;;2.34;99.47
10462;BME280;5278;42.656;23.374;2023-01-29T05:52:42;94832.91;;;2.23;99.79
10462;BME280;5278;42.656;23.374;2023-01-29T05:55:09;94856.75;;;2.34;99.43
10462;BME280;5278;42.656;23.374;2023-01-29T05:57:38;94855.16;;;2.33;98.83
10462;BME280;5278;42.656;23.374;2023-01-29T06:00:07;94865.16;;;2.36;99.55
10462;BME280;5278;42.656;23.374;2023-01-29T06:02:34;94857.81;;;2.43;99.53
10462;BME280;5278;42.656;23.374;2023-01-29T06:05:01;94867.91;;;2.44;98.87
10462;BME280;5278;42.656;23.374;2023-01-29T06:07:28;94871.44;;;2.43;99.46
10462;BME280;5278;42.656;23.374;2023-01-29T06:09:57;94869.81;;;2.42;98.92
10462;BME280;5278;42.656;23.374;2023-01-29T06:12:25;94869.09;;;2.40;98.95
10462;BME280;5278;42.656;23.374;2023-01-29T06:14:52;94886.31;;;2.49;99.65
10462;BME280;5278;42.656;23.374;2023-01-29T06:17:19;94878.53;;;2.51;99.20
10462;BME280;5278;42.656;23.374;2023-01-29T06:19:46;94880.50;;;2.58;99.28
10462;BME280;5278;42.656;23.374;2023-01-29T06:22:13;94884.22;;;2.54;98.85
10462;BME280;5278;42.656;23.374;2023-01-29T06:24:40;94892.97;;;2.63;99.61
10462;BME280;5278;42.656;23.374;2023-01-29T06:27:08;94894.09;;;2.70;99.40
10462;BME280;5278;42.656;23.374;2023-01-29T06:29:37;94900.03;;;2.71;99.27
10462;BME280;5278;42.656;23.374;2023-01-29T06:32:04;94890.94;;;2.78;99.06
10462;BME280;5278;42.656;23.374;2023-01-29T06:34:31;94890.69;;;2.81;99.37
10462;BME280;5278;42.656;23.374;2023-01-29T06:36:58;94900.94;;;2.92;99.25
10462;BME280;5278;42.656;23.374;2023-01-29T06:39:25;94903.94;;;2.97;98.00
10462;BME280;5278;42.656;23.374;2023-01-29T06:41:52;94901.38;;;2.97;98.12
10462;BME280;5278;42.656;23.374;2023-01-29T06:44:20;94904.88;;;2.96;97.62
10462;BME280;5278;42.656;23.374;2023-01-29T06:46:49;94909.75;;;2.99;96.93
10462;BME280;5278;42.656;23.374;2023-01-29T06:49:16;94916.50;;;3.00;96.42
10462;BME280;5278;42.656;23.374;2023-01-29T06:51:42;94922.25;;;3.03;97.08
10462;BME280;5278;42.656;23.374;2023-01-29T06:54:09;94900.03;;;2.71;96.68
10462;BME280;5278;42.656;23.374;2023-01-29T06:56:37;94922.84;;;2.85;98.07
10462;BME280;5278;42.656;23.374;2023-01-29T06:59:04;94923.44;;;2.88;98.37
10462;BME280;5278;42.656;23.374;2023-01-29T07:01:34;94924.94;;;2.91;97.54
10462;BME280;5278;42.656;23.374;2023-01-29T07:04:07;94929.47;;;2.98;96.51
10462;BME280;5278;42.656;23.374;2023-01-29T07:06:34;94920.97;;;2.98;97.37
10462;BME280;5278;42.656;23.374;2023-01-29T07:09:01;94924.91;;;3.02;97.06
10462;BME280;5278;42.656;23.374;2023-01-29T07:11:28;94930.97;;;3.01;96.70
10462;BME280;5278;42.656;23.374;2023-01-29T07:13:56;94930.59;;;3.06;97.20
10462;BME280;5278;42.656;23.374;2023-01-29T07:16:23;94934.56;;;3.10;97.23
10462;BME280;5278;42.656;23.374;2023-01-29T07:18:54;94935.16;;;3.13;96.96
10462;BME280;5278;42.656;23.374;2023-01-29T07:21:21;94940.41;;;3.12;96.30
10462;BME280;5278;42.656;23.374;2023-01-29T07:23:48;94935.25;;;3.12;96.43
10462;BME280;5278;42.656;23.374;2023-01-29T07:26:15;94936.09;;;3.12;96.78
10462;BME280;5278;42.656;23.374;2023-01-29T07:28:42;94937.13;;;3.10;96.00
10462;BME280;5278;42.656;23.374;2023-01-29T07:31:12;94938.88;;;3.09;96.76
10462;BME280;5278;42.656;23.374;2023-01-29T07:33:39;94943.06;;;3.10;95.89
10462;BME280;5278;42.656;23.374;2023-01-29T07:36:09;94949.38;;;3.17;95.72
10462;BME280;5278;42.656;23.374;2023-01-29T07:38:37;94912.31;;;2.99;96.16
10462;BME280;5278;42.656;23.374;2023-01-29T07:41:05;94951.38;;;3.14;96.32
10462;BME280;5278;42.656;23.374;2023-01-29T07:43:32;94952.75;;;3.18;96.44
10462;BME280;5278;42.656;23.374;2023-01-29T07:46:01;94942.78;;;3.24;95.83
10462;BME280;5278;42.656;23.374;2023-01-29T07:48:28;94946.25;;;3.34;95.14
10462;BME280;5278;42.656;23.374;2023-01-29T07:50:55;94947.22;;;3.33;94.67
10462;BME280;5278;42.656;23.374;2023-01-29T07:53:25;94956.78;;;3.31;95.02
10462;BME280;5278;42.656;23.374;2023-01-29T07:55:52;94933.47;;;3.23;95.42
10462;BME280;5278;42.656;23.374;2023-01-29T07:58:19;94945.25;;;3.26;95.54
10462;BME280;5278;42.656;23.374;2023-01-29T08:00:46;94957.72;;;3.30;95.86
10462;BME280;5278;42.656;23.374;2023-01-29T08:03:14;94993.91;;;3.16;96.09
10462;BME280;5278;42.656;23.374;2023-01-29T08:05:42;94958.72;;;3.07;96.65
10462;BME280;5278;42.656;23.374;2023-01-29T08:08:09;94969.00;;;3.07;97.05
10462;BME280;5278;42.656;23.374;2023-01-29T08:10:38;94960.09;;;3.11;97.69
10462;BME280;5278;42.656;23.374;2023-01-29T08:13:06;94960.31;;;3.19;97.07
10462;BME280;5278;42.656;23.374;2023-01-29T08:15:33;94965.31;;;3.21;95.40
10462;BME280;5278;42.656;23.374;2023-01-29T08:18:01;94972.34;;;3.19;96.01
10462;BME280;5278;42.656;23.374;2023-01-29T08:20:28;94970.00;;;3.16;95.02
10462;BME280;5278;42.656;23.374;2023-01-29T08:22:59;94929.06;;;2.82;95.28
10462;BME280;5278;42.656;23.374;2023-01-29T08:25:27;94975.25;;;3.14;99.32
10462;BME280;5278;42.656;23.374;2023-01-29T08:27:56;94967.09;;;6.48;100.00
10462;BME280;5278;42.656;23.374;2023-01-29T08:30:23;94961.66;;;7.86;100.00
10462;BME280;5278;42.656;23.374;2023-01-29T08:32:50;94954.03;;;8.80;86.94
10462;BME280;5278;42.656;23.374;2023-01-29T08:35:17;94949.34;;;8.49;73.51
10462;BME280;5278;42.656;23.374;2023-01-29T08:37:51;94970.00;;;7.80;71.61
10462;BME280;5278;42.656;23.374;2023-01-29T08:40:18;94965.03;;;7.16;72.54
10462;BME280;5278;42.656;23.374;2023-01-29T08:42:45;94980.41;;;6.53;74.73
10462;BME280;5278;42.656;23.374;2023-01-29T08:45:14;94973.88;;;6.02;76.66
10462;BME280;5278;42.656;23.374;2023-01-29T08:47:44;94977.66;;;5.60;78.93
10462;BME280;5278;42.656;23.374;2023-01-29T08:50:12;94988.06;;;5.20;80.79
10462;BME280;5278;42.656;23.374;2023-01-29T08:52:40;94992.31;;;4.81;82.21
10462;BME280;5278;42.656;23.374;2023-01-29T08:55:07;94989.38;;;4.34;84.65
10462;BME280;5278;42.656;23.374;2023-01-29T08:57:34;94994.97;;;4.19;86.10
10462;BME280;5278;42.656;23.374;2023-01-29T09:00:02;94999.44;;;3.96;87.26
10462;BME280;5278;42.656;23.374;2023-01-29T09:02:31;95002.56;;;3.79;88.11
10462;BME280;5278;42.656;23.374;2023-01-29T09:04:58;94993.13;;;3.47;89.41
10462;BME280;5278;42.656;23.374;2023-01-29T09:07:25;95016.91;;;3.50;91.04
10462;BME280;5278;42.656;23.374;2023-01-29T09:09:52;95004.09;;;3.50;90.90
10462;BME280;5278;42.656;23.374;2023-01-29T09:12:20;95010.50;;;3.44;91.73
10462;BME280;5278;42.656;23.374;2023-01-29T09:14:47;94997.94;;;3.41;91.75
10462;BME280;5278;42.656;23.374;2023-01-29T09:17:13;94997.13;;;3.40;92.11
10462;BME280;5278;42.656;23.374;2023-01-29T09:19:42;95002.59;;;3.47;92.11
10462;BME280;5278;42.656;23.374;2023-01-29T09:22:08;94996.19;;;3.41;91.26
10462;BME280;5278;42.656;23.374;2023-01-29T09:24:35;95010.22;;;3.37;91.42
10462;BME280;5278;42.656;23.374;2023-01-29T09:27:02;94998.50;;;3.44;92.01
10462;BME280;5278;42.656;23.374;2023-01-29T09:29:30;94994.50;;;3.52;91.58
10462;BME280;5278;42.656;23.374;2023-01-29T09:31:57;94999.91;;;3.49;90.74
10462;BME280;5278;42.656;23.374;2023-01-29T09:34:24;95005.56;;;3.31;90.70
10462;BME280;5278;42.656;23.374;2023-01-29T09:36:52;95000.31;;;3.22;92.42
10462;BME280;5278;42.656;23.374;2023-01-29T09:39:19;94999.16;;;3.26;92.21
10462;BME280;5278;42.656;23.374;2023-01-29T09:41:53;95001.13;;;3.33;92.62
10462;BME280;5278;42.656;23.374;2023-01-29T09:44:27;94998.66;;;3.32;91.59
10462;BME280;5278;42.656;23.374;2023-01-29T09:47:01;94991.09;;;3.30;91.17
10462;BME280;5278;42.656;23.374;2023-01-29T09:49:34;94994.25;;;3.23;91.07
10462;BME280;5278;42.656;23.374;2023-01-29T09:52:10;94991.00;;;3.10;92.16
10462;BME280;5278;42.656;23.374;2023-01-29T09:54:48;94983.91;;;3.13;93.60
10462;BME280;5278;42.656;23.374;2023-01-29T09:57:21;94949.09;;;2.88;91.97
10462;BME280;5278;42.656;23.374;2023-01-29T09:59:51;94981.81;;;3.18;92.56
10462;BME280;5278;42.656;23.374;2023-01-29T10:02:35;94987.03;;;3.28;91.98
10462;BME280;5278;42.656;23.374;2023-01-29T10:05:13;94978.72;;;3.24;92.12
10462;BME280;5278;42.656;23.374;2023-01-29T10:11:20;94972.91;;;3.22;91.80
10462;BME280;5278;42.656;23.374;2023-01-29T10:13:59;94978.28;;;3.19;92.48
10462;BME280;5278;42.656;23.374;2023-01-29T10:16:43;94966.66;;;3.04;92.22
10462;BME280;5278;42.656;23.374;2023-01-29T10:19:47;94969.81;;;2.96;92.64
10462;BME280;5278;42.656;23.374;2023-01-29T10:22:52;94972.28;;;2.87;93.93
10462;BME280;5278;42.656;23.374;2023-01-29T10:25:21;94969.25;;;2.93;94.26
10462;BME280;5278;42.656;23.374;2023-01-29T10:27:52;94968.31;;;2.94;93.28
10462;BME280;5278;42.656;23.374;2023-01-29T10:30:26;94969.94;;;2.95;94.23
10462;BME280;5278;42.656;23.374;2023-01-29T10:32:55;94963.88;;;2.96;93.46
10462;BME280;5278;42.656;23.374;2023-01-29T10:35:28;94961.88;;;2.99;93.38
10462;BME280;5278;42.656;23.374;2023-01-29T10:37:57;94961.19;;;2.97;93.14
10462;BME280;5278;42.656;23.374;2023-01-29T10:40:36;94949.19;;;2.98;93.47
10462;BME280;5278;42.656;23.374;2023-01-29T10:43:11;94950.31;;;3.05;94.06
10462;BME280;5278;42.656;23.374;2023-01-29T10:45:49;94956.25;;;3.17;93.45
10462;BME280;5278;42.656;23.374;2023-01-29T10:48:34;94951.69;;;3.20;93.55
10462;BME280;5278;42.656;23.374;2023-01-29T10:51:13;94951.31;;;3.25;92.88
10462;BME280;5278;42.656;23.374;2023-01-29T10:53:55;94947.78;;;3.37;93.23
10462;BME280;5278;42.656;23.374;2023-01-29T10:56:33;94950.41;;;3.46;92.83
10462;BME280;5278;42.656;23.374;2023-01-29T10:59:08;94942.72;;;3.46;92.01
10462;BME280;5278;42.656;23.374;2023-01-29T11:01:43;94941.53;;;3.51;91.59
10462;BME280;5278;42.656;23.374;2023-01-29T11:04:11;94899.97;;;3.25;90.73
10462;BME280;5278;42.656;23.374;2023-01-29T11:06:39;94929.44;;;3.41;91.04
10462;BME280;5278;42.656;23.374;2023-01-29T11:09:17;94931.09;;;3.31;91.57
10462;BME280;5278;42.656;23.374;2023-01-29T11:11:51;94926.22;;;3.28;91.37
10462;BME280;5278;42.656;23.374;2023-01-29T11:14:25;94939.38;;;3.35;92.13
10462;BME280;5278;42.656;23.374;2023-01-29T11:16:53;94924.72;;;3.26;91.70
10462;BME280;5278;42.656;23.374;2023-01-29T11:19:35;94934.13;;;3.36;92.37
10462;BME280;5278;42.656;23.374;2023-01-29T11:22:02;94924.19;;;3.43;92.13
10462;BME280;5278;42.656;23.374;2023-01-29T11:24:33;94923.53;;;3.51;92.07
10462;BME280;5278;42.656;23.374;2023-01-29T11:27:00;94917.66;;;3.60;91.45
10462;BME280;5278;42.656;23.374;2023-01-29T11:29:33;94920.50;;;3.57;90.55
10462;BME280;5278;42.656;23.374;2023-01-29T11:32:04;94911.59;;;3.61;90.81
10462;BME280;5278;42.656;23.374;2023-01-29T11:34:32;94914.84;;;3.63;90.95
10462;BME280;5278;42.656;23.374;2023-01-29T11:37:00;94916.66;;;3.72;90.92
10462;BME280;5278;42.656;23.374;2023-01-29T11:39:30;94908.91;;;3.83;90.78
10462;BME280;5278;42.656;23.374;2023-01-29T11:41:59;94902.44;;;3.88;88.92
10462;BME280;5278;42.656;23.374;2023-01-29T11:44:31;94896.78;;;3.95;88.95
10462;BME280;5278;42.656;23.374;2023-01-29T11:47:10;94892.88;;;4.00;89.23
10462;BME280;5278;42.656;23.374;2023-01-29T11:49:38;94884.94;;;4.03;88.62
10462;BME280;5278;42.656;23.374;2023-01-29T11:52:08;94886.16;;;4.09;88.17
10462;BME280;5278;42.656;23.374;2023-01-29T11:54:39;94890.66;;;4.16;88.69
10462;BME280;5278;42.656;23.374;2023-01-29T11:57:24;94876.69;;;4.09;87.41
10462;BME280;5278;42.656;23.374;2023-01-29T11:59:57;94889.94;;;4.05;87.09
10462;BME280;5278;42.656;23.374;2023-01-29T12:02:29;94895.84;;;3.96;88.78
10462;BME280;5278;42.656;23.374;2023-01-29T12:05:00;94889.09;;;4.04;87.88
10462;BME280;5278;42.656;23.374;2023-01-29T12:07:29;94849.38;;;3.78;87.87
10462;BME280;5278;42.656;23.374;2023-01-29T12:09:57;94889.34;;;3.92;87.96
10462;BME280;5278;42.656;23.374;2023-01-29T12:12:28;94873.38;;;3.67;88.75
10462;BME280;5278;42.656;23.374;2023-01-29T12:15:09;94880.00;;;3.70;90.00
10462;BME280;5278;42.656;23.374;2023-01-29T12:17:43;94876.50;;;3.71;89.16
10462;BME280;5278;42.656;23.374;2023-01-29T12:20:14;94879.50;;;3.76;89.26
10462;BME280;5278;42.656;23.374;2023-01-29T12:22:46;94887.34;;;3.74;89.35
10462;BME280;5278;42.656;23.374;2023-01-29T12:25:20;94889.78;;;3.76;88.86
10462;BME280;5278;42.656;23.374;2023-01-29T12:27:53;94878.03;;;3.73;89.27
10462;BME280;5278;42.656;23.374;2023-01-29T12:30:27;94890.03;;;3.73;89.69
10462;BME280;5278;42.656;23.374;2023-01-29T12:33:00;94884.91;;;3.73;89.72
10462;BME280;5278;42.656;23.374;2023-01-29T12:35:30;94867.94;;;3.61;89.94
10462;BME280;5278;42.656;23.374;2023-01-29T12:38:02;94892.69;;;3.62;90.64
10462;BME280;5278;42.656;23.374;2023-01-29T12:40:32;94894.31;;;3.63;91.05
10462;BME280;5278;42.656;23.374;2023-01-29T12:43:04;94869.44;;;3.42;90.99
10462;BME280;5278;42.656;23.374;2023-01-29T12:45:37;94884.66;;;3.76;89.91
10462;BME280;5278;42.656;23.374;2023-01-29T12:48:06;94890.59;;;3.76;88.85
10462;BME280;5278;42.656;23.374;2023-01-29T12:50:34;94889.28;;;3.82;89.50
10462;BME280;5278;42.656;23.374;2023-01-29T12:53:06;94892.16;;;3.88;88.98
10462;BME280;5278;42.656;23.374;2023-01-29T12:55:43;94892.44;;;3.95;89.08
10462;BME280;5278;42.656;23.374;2023-01-29T12:58:14;94888.34;;;3.83;88.01
10462;BME280;5278;42.656;23.374;2023-01-29T13:00:45;94891.47;;;3.66;88.17
10462;BME280;5278;42.656;23.374;2023-01-29T13:03:18;94885.72;;;3.53;89.79
10462;BME280;5278;42.656;23.374;2023-01-29T13:05:49;94888.34;;;3.41;90.92
10462;BME280;5278;42.656;23.374;2023-01-29T13:08:19;94888.25;;;3.43;91.49
10462;BME280;5278;42.656;23.374;2023-01-29T13:10:49;94876.25;;;3.32;91.24
10462;BME280;5278;42.656;23.374;2023-01-29T13:13:23;94896.66;;;3.34;91.35
10462;BME280;5278;42.656;23.374;2023-01-29T13:15:54;94871.88;;;3.44;90.64
10462;BME280;5278;42.656;23.374;2023-01-29T13:18:35;94878.59;;;3.56;89.74
10462;BME280;5278;42.656;23.374;2023-01-29T13:21:05;94877.38;;;3.60;89.26
10462;BME280;5278;42.656;23.374;2023-01-29T13:23:42;94880.22;;;3.57;89.25
10462;BME280;5278;42.656;23.374;2023-01-29T13:26:10;94882.78;;;3.57;89.46
10462;BME280;5278;42.656;23.374;2023-01-29T13:28:38;94883.34;;;3.61;89.34
10462;BME280;5278;42.656;23.374;2023-01-29T13:31:13;94885.41;;;3.67;89.00
10462;BME280;5278;42.656;23.374;2023-01-29T13:33:51;94888.22;;;3.64;89.48
10462;BME280;5278;42.656;23.374;2023-01-29T13:36:24;94897.88;;;3.71;89.62
10462;BME280;5278;42.656;23.374;2023-01-29T13:38:57;94870.75;;;3.58;89.45
10462;BME280;5278;42.656;23.374;2023-01-29T13:41:31;94904.16;;;3.78;89.12